Gould, Oklahoma
Current Conditions -  °F | °C
As of 4:55 AM on Friday 31 Oct 2014 (Local Time) from KAXS Reporting Station
Clear Clear  
Wind Chill: 11°   Ceiling: Unl
Heat Index: 11°   Visibility: 10mi
Dew Point:   Wind: 10mph
Humidity: 50%   Direction: 30°NNE
Pressure: 30.34"   Gusts: NA
Location:  34.67°N, 99.77°W
Report Text: KAXS 310955Z AUTO 03009KT 10SM CLR 11/01 A3034 RMK AO2 T01100008
Loading
Personal Weather Stations






























Interactive Weather Map
Tropical Storm Tracking
New forecast layout! Learn more

10-Day Weather Forecast

Advertisements
Track Severe Weather on mobile